Time;durP1;ratioP1;P1;durP2;ratioP2;P2;SDS_P1;SDS_P2;PMS_P1;PMS_P2;Temp;Humidity;BMP_temperature;BMP_pressure;BME280_temperature;BME280_humidity;BME280_pressure;Samples;Min_cycle;Max_cycle;Signal;HPM_P1;HPM_P2
2024/01/29 00:04:10;;;;;;;;;;;6.90;99.90;;;;;;6720979;88;20497;-73
2024/01/29 00:14:10;;;;;;;;;;;6.80;99.90;;;;;;6725530;88;20066;-73
2024/01/29 00:24:11;;;;;;;;;;;6.80;99.90;;;;;;6725465;88;20630;-72
2024/01/29 00:34:12;;;;;;;;;;;6.80;99.90;;;;;;6718930;88;20074;-73
2024/01/29 00:44:12;;;;;;;;;;;6.70;99.90;;;;;;6717329;88;20514;-74
2024/01/29 00:54:13;;;;;;;;;;;6.70;99.90;;;;;;6720139;88;20055;-74
2024/01/29 01:04:14;;;;;;;;;;;6.80;99.90;;;;;;6718899;88;20177;-74
2024/01/29 01:14:14;;;;;;;;;;;6.70;99.90;;;;;;6724880;88;20094;-74
2024/01/29 01:24:15;;;;;;;;;;;6.80;99.90;;;;;;6718369;88;20059;-74
2024/01/29 01:34:15;;;;;;;;;;;6.80;99.90;;;;;;6715403;88;20063;-74
2024/01/29 01:44:16;;;;;;;;;;;6.90;99.90;;;;;;6715660;88;20063;-74
2024/01/29 01:54:17;;;;;;;;;;;7.00;99.90;;;;;;6715628;88;20602;-74
2024/01/29 02:04:18;;;;;;;;;;;7.10;99.90;;;;;;6715623;88;20120;-73
2024/01/29 02:14:18;;;;;;;;;;;7.10;99.90;;;;;;6719856;88;20528;-74
2024/01/29 02:24:19;;;;;;;;;;;7.00;99.90;;;;;;6726445;88;20084;-74
2024/01/29 02:34:19;;;;;;;;;;;7.00;99.90;;;;;;6716626;88;20112;-74
2024/01/29 02:44:19;;;;;;;;;;;7.00;99.90;;;;;;6720302;88;20081;-73
2024/01/29 02:54:20;;;;;;;;;;;6.90;99.90;;;;;;6723177;88;20054;-73
2024/01/29 03:04:20;;;;;;;;;;;6.90;99.90;;;;;;6718304;88;20070;-73
2024/01/29 03:14:21;;;;;;;;;;;7.00;99.90;;;;;;6717092;88;20266;-74
2024/01/29 03:24:21;;;;;;;;;;;6.90;99.90;;;;;;6718316;88;20076;-74
2024/01/29 03:34:22;;;;;;;;;;;6.90;99.90;;;;;;6716499;88;20107;-73
2024/01/29 03:44:22;;;;;;;;;;;6.80;99.90;;;;;;6717079;88;20088;-75
2024/01/29 03:54:23;;;;;;;;;;;6.70;99.90;;;;;;6711623;88;20562;-76
2024/01/29 04:04:23;;;;;;;;;;;6.60;99.90;;;;;;6723770;88;20083;-75
2024/01/29 04:14:24;;;;;;;;;;;6.50;99.90;;;;;;6726241;88;20134;-75
2024/01/29 04:24:24;;;;;;;;;;;6.50;99.90;;;;;;6715549;88;20054;-75
2024/01/29 04:34:24;;;;;;;;;;;6.40;99.90;;;;;;6715226;88;20078;-75
2024/01/29 04:44:25;;;;;;;;;;;6.30;99.90;;;;;;6715428;88;20593;-75
2024/01/29 04:54:25;;;;;;;;;;;6.30;99.90;;;;;;6719318;88;20076;-75
2024/01/29 05:04:26;;;;;;;;;;;6.20;99.90;;;;;;6723668;88;20079;-76
2024/01/29 05:14:27;;;;;;;;;;;6.20;99.90;;;;;;6718903;88;20058;-75
2024/01/29 05:24:28;;;;;;;;;;;6.20;99.90;;;;;;6716511;88;20201;-74
2024/01/29 05:34:28;;;;;;;;;;;6.30;99.90;;;;;;6713941;88;20307;-76
2024/01/29 05:44:29;;;;;;;;;;;6.20;99.90;;;;;;6716409;88;20112;-75
2024/01/29 05:54:29;;;;;;;;;;;6.10;99.90;;;;;;6719155;88;20566;-75
2024/01/29 06:04:30;;;;;;;;;;;6.10;99.90;;;;;;6721828;88;20539;-75
2024/01/29 06:14:30;;;;;;;;;;;6.00;99.90;;;;;;6717196;88;20084;-74
2024/01/29 06:24:31;;;;;;;;;;;5.90;99.90;;;;;;6720591;88;20063;-75
2024/01/29 06:34:33;;;;;;;;;;;5.90;99.90;;;;;;6718328;88;20056;-75
2024/01/29 06:44:34;;;;;;;;;;;5.80;99.90;;;;;;6720402;88;20446;-76
2024/01/29 06:54:34;;;;;;;;;;;5.70;99.90;;;;;;6722922;88;20055;-76
2024/01/29 07:04:35;;;;;;;;;;;5.60;99.90;;;;;;6718989;88;20055;-75
2024/01/29 07:14:35;;;;;;;;;;;5.60;99.90;;;;;;6723547;88;20082;-75
2024/01/29 07:24:35;;;;;;;;;;;5.50;99.90;;;;;;6722038;88;20103;-75
2024/01/29 07:34:36;;;;;;;;;;;5.50;99.90;;;;;;6718718;88;20056;-76
2024/01/29 07:44:38;;;;;;;;;;;5.40;99.90;;;;;;6723895;88;20533;-75
2024/01/29 07:54:38;;;;;;;;;;;5.30;99.90;;;;;;6721229;88;20520;-75
2024/01/29 08:04:39;;;;;;;;;;;5.50;99.90;;;;;;6715759;88;20081;-75
2024/01/29 08:14:39;;;;;;;;;;;5.60;99.90;;;;;;6716246;88;20069;-74
2024/01/29 08:24:40;;;;;;;;;;;5.70;99.90;;;;;;6717098;88;20071;-75
2024/01/29 08:34:40;;;;;;;;;;;5.80;99.90;;;;;;6715837;88;20113;-75
2024/01/29 08:44:41;;;;;;;;;;;6.10;99.90;;;;;;6716131;88;20152;-74
2024/01/29 08:54:41;;;;;;;;;;;6.40;99.90;;;;;;6717051;88;20536;-75
2024/01/29 09:04:42;;;;;;;;;;;6.50;99.90;;;;;;6717837;88;20530;-75
2024/01/29 09:14:42;;;;;;;;;;;6.50;99.90;;;;;;6726558;88;20224;-74
2024/01/29 09:24:43;;;;;;;;;;;7.10;99.90;;;;;;6719222;88;20066;-74
2024/01/29 09:34:44;;;;;;;;;;;7.40;99.90;;;;;;6720226;88;20084;-75
2024/01/29 09:44:47;;;;;;;;;;;7.50;99.90;;;;;;6717500;88;20515;-75
2024/01/29 09:54:49;;;;;;;;;;;7.50;99.90;;;;;;6717045;88;20826;-76
2024/01/29 10:04:49;;;;;;;;;;;8.20;99.90;;;;;;6719574;88;20117;-74
2024/01/29 10:14:55;;;;;;;;;;;8.70;99.90;;;;;;6717127;88;20549;-75
2024/01/29 10:25:02;;;;;;;;;;;9.10;99.90;;;;;;6716034;88;20071;-75
2024/01/29 10:35:03;;;;;;;;;;;9.30;99.90;;;;;;6716256;88;20051;-75
2024/01/29 10:45:04;;;;;;;;;;;9.50;99.90;;;;;;6717583;88;20491;-75
2024/01/29 10:55:05;;;;;;;;;;;9.50;99.90;;;;;;6715990;88;20082;-75
2024/01/29 11:05:07;;;;;;;;;;;10.20;99.90;;;;;;6717726;88;20086;-75
2024/01/29 11:15:08;;;;;;;;;;;10.70;99.90;;;;;;6717643;88;20100;-75
2024/01/29 11:25:14;;;;;;;;;;;11.30;99.90;;;;;;6718318;88;20071;-74
2024/01/29 11:35:18;;;;;;;;;;;11.90;99.90;;;;;;6723204;88;20188;-75
2024/01/29 11:45:19;;;;;;;;;;;11.80;99.90;;;;;;6718941;88;20099;-75
2024/01/29 11:55:21;;;;;;;;;;;12.30;99.90;;;;;;6719938;88;20534;-76
2024/01/29 12:05:21;;;;;;;;;;;12.30;99.90;;;;;;6718701;88;20063;-74
2024/01/29 12:15:22;;;;;;;;;;;12.10;99.90;;;;;;6723833;88;20080;-75
2024/01/29 12:25:22;;;;;;;;;;;13.00;99.90;;;;;;6714350;88;20182;-76
2024/01/29 12:35:26;;;;;;;;;;;13.20;99.90;;;;;;6715446;88;20129;-75
2024/01/29 12:45:26;;;;;;;;;;;12.90;99.90;;;;;;6714906;88;20696;-75
2024/01/29 12:55:27;;;;;;;;;;;12.90;99.90;;;;;;6713989;88;20055;-75
2024/01/29 13:05:27;;;;;;;;;;;13.30;99.90;;;;;;6717266;88;20071;-75
2024/01/29 13:15:28;;;;;;;;;;;14.00;99.90;;;;;;6716708;88;20627;-75
2024/01/29 13:25:28;;;;;;;;;;;13.80;99.90;;;;;;6724096;88;20491;-75
2024/01/29 13:35:29;;;;;;;;;;;13.70;99.90;;;;;;6714577;88;20133;-75
2024/01/29 13:45:29;;;;;;;;;;;13.40;99.90;;;;;;6715069;88;20843;-75
2024/01/29 13:55:29;;;;;;;;;;;13.60;99.90;;;;;;6715224;88;20124;-75
2024/01/29 14:05:30;;;;;;;;;;;13.30;99.90;;;;;;6721062;88;20521;-75
2024/01/29 14:58:19;;;;;;;;;;;12.70;99.90;;;;;;6797518;87;20065;-78
2024/01/29 15:08:46;;;;;;;;;;;12.70;99.90;;;;;;6761017;88;20074;-79
2024/01/29 15:18:50;;;;;;;;;;;12.60;99.90;;;;;;6779912;87;20163;-79
2024/01/29 15:39:17;;;;;;;;;;;12.20;99.90;;;;;;6780459;87;20052;-79
2024/01/29 15:49:18;;;;;;;;;;;12.10;99.90;;;;;;6780543;87;20067;-79
2024/01/29 15:59:18;;;;;;;;;;;11.90;99.90;;;;;;6779962;87;20048;-78
2024/01/29 16:09:19;;;;;;;;;;;11.80;99.90;;;;;;6779477;87;20084;-78
2024/01/29 16:19:19;;;;;;;;;;;11.60;99.90;;;;;;6778971;87;20024;-78
2024/01/29 16:29:19;;;;;;;;;;;11.50;99.90;;;;;;6779113;87;20052;-80
2024/01/29 16:39:20;;;;;;;;;;;11.30;99.90;;;;;;6778718;88;20082;-79
2024/01/29 16:49:20;;;;;;;;;;;11.10;99.90;;;;;;6777047;87;20064;-78
2024/01/29 16:59:21;;;;;;;;;;;11.00;99.90;;;;;;6778226;87;20659;-79
2024/01/29 17:09:21;;;;;;;;;;;10.90;99.90;;;;;;6784179;87;20086;-78
2024/01/29 17:19:22;;;;;;;;;;;10.80;99.90;;;;;;6794895;87;20601;-78
2024/01/29 17:29:23;;;;;;;;;;;10.70;99.90;;;;;;6792765;87;20033;-77
2024/01/29 17:39:23;;;;;;;;;;;10.60;99.90;;;;;;6792641;87;20063;-78
2024/01/29 17:49:24;;;;;;;;;;;10.50;99.90;;;;;;6783342;87;20128;-78
2024/01/29 17:59:24;;;;;;;;;;;10.50;99.90;;;;;;6786249;87;20057;-78
2024/01/29 18:09:25;;;;;;;;;;;10.40;99.90;;;;;;6793294;87;20060;-78
2024/01/29 18:19:25;;;;;;;;;;;10.20;99.90;;;;;;6785800;87;20041;-79
2024/01/29 18:29:27;;;;;;;;;;;10.10;99.90;;;;;;6790003;87;20139;-80
2024/01/29 18:39:27;;;;;;;;;;;10.00;99.90;;;;;;6790545;87;20062;-79
2024/01/29 18:49:28;;;;;;;;;;;9.90;99.90;;;;;;6782772;87;20061;-79
2024/01/29 18:59:28;;;;;;;;;;;9.80;99.90;;;;;;6795106;87;20129;-78
2024/01/29 19:09:29;;;;;;;;;;;9.70;99.90;;;;;;6785866;87;20042;-80
2024/01/29 19:19:29;;;;;;;;;;;9.60;99.90;;;;;;6783205;87;20041;-80
2024/01/29 19:29:30;;;;;;;;;;;9.70;99.90;;;;;;6759859;87;20048;-78
2024/01/29 19:39:30;;;;;;;;;;;9.60;99.90;;;;;;6771768;87;20056;-81
2024/01/29 19:49:31;;;;;;;;;;;9.50;99.90;;;;;;6778112;87;20875;-79
2024/01/29 19:59:31;;;;;;;;;;;9.50;99.90;;;;;;6771383;87;20094;-80
2024/01/29 20:09:32;;;;;;;;;;;9.50;99.90;;;;;;6768549;87;20173;-79
2024/01/29 20:19:32;;;;;;;;;;;9.50;99.90;;;;;;6780033;87;20041;-80
2024/01/29 20:29:33;;;;;;;;;;;9.30;99.90;;;;;;6737332;87;20796;-80
2024/01/29 20:39:33;;;;;;;;;;;9.40;99.90;;;;;;6746661;87;20079;-79
2024/01/29 20:49:34;;;;;;;;;;;9.30;99.90;;;;;;6775435;87;20076;-79
2024/01/29 20:59:34;;;;;;;;;;;9.30;99.90;;;;;;6771967;87;20073;-79
2024/01/29 21:09:37;;;;;;;;;;;9.20;99.90;;;;;;6782435;87;20074;-79
2024/01/29 21:19:39;;;;;;;;;;;9.20;99.90;;;;;;6778690;87;20056;-78
2024/01/29 21:29:39;;;;;;;;;;;9.20;99.90;;;;;;6776218;87;20051;-79
2024/01/29 21:39:39;;;;;;;;;;;9.20;99.90;;;;;;6776533;87;20658;-79
2024/01/29 21:49:40;;;;;;;;;;;9.10;99.90;;;;;;6779885;87;20052;-78
2024/01/29 21:59:40;;;;;;;;;;;9.10;99.90;;;;;;6776761;87;20052;-78
2024/01/29 22:09:44;;;;;;;;;;;9.10;99.90;;;;;;6777143;87;20843;-79
2024/01/29 22:19:44;;;;;;;;;;;9.00;99.90;;;;;;6781287;87;20044;-80
2024/01/29 22:29:45;;;;;;;;;;;8.90;99.90;;;;;;6796897;87;20030;-79
2024/01/29 22:39:45;;;;;;;;;;;8.80;99.90;;;;;;6782349;87;20070;-79
2024/01/29 22:49:46;;;;;;;;;;;8.60;99.90;;;;;;6778325;87;20059;-79
2024/01/29 22:59:46;;;;;;;;;;;8.70;99.90;;;;;;6784530;87;20612;-78
2024/01/29 23:09:46;;;;;;;;;;;8.60;99.90;;;;;;6761781;88;20120;-78
2024/01/29 23:19:47;;;;;;;;;;;8.50;99.90;;;;;;6767586;87;20059;-78
2024/01/29 23:29:48;;;;;;;;;;;8.50;99.90;;;;;;6764338;87;20065;-78
2024/01/29 23:39:48;;;;;;;;;;;8.40;99.90;;;;;;6772504;87;20049;-78
2024/01/29 23:49:48;;;;;;;;;;;8.40;99.90;;;;;;6766499;87;20189;-78
2024/01/29 23:59:49;;;;;;;;;;;8.40;99.90;;;;;;6775952;87;20057;-78
